Time;durP1;ratioP1;P1;durP2;ratioP2;P2;SDS_P1;SDS_P2;PMS_P1;PMS_P2;Temp;Humidity;BMP_temperature;BMP_pressure;BME280_temperature;BME280_humidity;BME280_pressure;Samples;Min_cycle;Max_cycle;Signal;HPM_P1;HPM_P2
2023/05/01 00:01:17;;;;;;;;;;;9.50;99.90;;;;;;5073816;28;20020;-73
2023/05/01 00:03:44;;;;;;;;;;;9.50;99.90;;;;;;5094434;28;20408;-72
2023/05/01 00:06:10;;;;;;;;;;;9.60;99.90;;;;;;5094739;28;19979;-72
2023/05/01 00:08:35;;;;;;;;;;;9.40;99.90;;;;;;5095843;28;20015;-72
2023/05/01 00:11:04;;;;;;;;;;;9.50;99.90;;;;;;5094508;28;19924;-72
2023/05/01 00:13:30;;;;;;;;;;;9.40;99.90;;;;;;5095289;28;20298;-72
2023/05/01 00:15:56;;;;;;;;;;;9.40;99.90;;;;;;5094732;28;20010;-72
2023/05/01 00:18:22;;;;;;;;;;;9.60;99.90;;;;;;5094435;28;19993;-73
2023/05/01 00:20:47;;;;;;;;;;;9.40;99.90;;;;;;5095573;28;19924;-72
2023/05/01 00:23:13;;;;;;;;;;;9.40;99.90;;;;;;5094199;28;19928;-72
2023/05/01 00:25:38;;;;;;;;;;;9.40;99.90;;;;;;5092977;28;19924;-72
2023/05/01 00:28:05;;;;;;;;;;;9.40;99.90;;;;;;5093912;28;20074;-72
2023/05/01 00:30:33;;;;;;;;;;;9.40;99.90;;;;;;5094269;28;19924;-72
2023/05/01 00:32:59;;;;;;;;;;;9.40;99.90;;;;;;5094967;28;19924;-72
2023/05/01 00:35:25;;;;;;;;;;;9.40;99.90;;;;;;5095040;28;19969;-72
2023/05/01 00:37:50;;;;;;;;;;;9.40;99.90;;;;;;5094337;28;20254;-72
2023/05/01 00:40:16;;;;;;;;;;;9.30;99.90;;;;;;5093859;28;19924;-72
2023/05/01 00:42:41;;;;;;;;;;;9.30;99.90;;;;;;5094792;28;20011;-72
2023/05/01 00:45:07;;;;;;;;;;;9.20;99.90;;;;;;5092315;28;19928;-72
2023/05/01 00:47:36;;;;;;;;;;;9.30;99.90;;;;;;5093465;28;19924;-72
2023/05/01 00:50:06;;;;;;;;;;;9.20;99.90;;;;;;5093198;28;19931;-72
2023/05/01 00:52:31;;;;;;;;;;;9.20;99.90;;;;;;5092689;28;19966;-72
2023/05/01 00:54:57;;;;;;;;;;;10.00;99.90;;;;;;5092716;28;19931;-72
2023/05/01 00:57:23;;;;;;;;;;;9.20;99.90;;;;;;5093456;28;19931;-72
2023/05/01 00:59:48;;;;;;;;;;;9.50;99.90;;;;;;5114104;28;19923;-72
2023/05/01 01:02:14;;;;;;;;;;;9.10;99.90;;;;;;5114841;28;19968;-72
2023/05/01 01:04:44;;;;;;;;;;;9.20;99.90;;;;;;5096127;28;19969;-72
2023/05/01 01:07:10;;;;;;;;;;;9.10;99.90;;;;;;5095463;28;19977;-72
2023/05/01 01:09:47;;;;;;;;;;;9.10;99.90;;;;;;5096312;28;19924;-72
2023/05/01 01:12:42;;;;;;;;;;;9.00;99.90;;;;;;5114300;28;19923;-72
2023/05/01 01:15:26;;;;;;;;;;;9.00;99.90;;;;;;5078750;28;19928;-72
2023/05/01 01:17:51;;;;;;;;;;;8.90;99.90;;;;;;5096272;28;19923;-72
2023/05/01 01:20:23;;;;;;;;;;;9.00;99.90;;;;;;5113947;28;20413;-72
2023/05/01 01:22:57;;;;;;;;;;;8.90;99.90;;;;;;5096252;28;19924;-72
2023/05/01 01:25:26;;;;;;;;;;;8.90;99.90;;;;;;5114272;28;19924;-72
2023/05/01 01:27:58;;;;;;;;;;;8.80;99.90;;;;;;5095125;28;19963;-72
2023/05/01 01:30:47;;;;;;;;;;;8.80;99.90;;;;;;5114522;28;19924;-72
2023/05/01 01:33:23;;;;;;;;;;;8.80;99.90;;;;;;5113863;28;19927;-72
2023/05/01 01:35:56;;;;;;;;;;;8.70;99.90;;;;;;5075262;28;20367;-72
2023/05/01 01:38:26;;;;;;;;;;;8.60;99.90;;;;;;5075704;28;19924;-72
2023/05/01 01:40:55;;;;;;;;;;;8.60;99.90;;;;;;5092896;28;19998;-72
2023/05/01 01:43:21;;;;;;;;;;;8.60;99.90;;;;;;5095769;28;19928;-72
2023/05/01 01:45:48;;;;;;;;;;;8.60;99.90;;;;;;5095612;28;19929;-72
2023/05/01 01:48:16;;;;;;;;;;;8.70;99.90;;;;;;5095100;28;19930;-72
2023/05/01 01:50:43;;;;;;;;;;;8.60;99.90;;;;;;5095911;28;19930;-72
2023/05/01 01:53:09;;;;;;;;;;;8.60;99.90;;;;;;5113505;28;20020;-72
2023/05/01 01:55:36;;;;;;;;;;;8.50;99.90;;;;;;5112929;28;19970;-72
2023/05/01 01:58:02;;;;;;;;;;;8.60;99.90;;;;;;5113076;28;19923;-72
2023/05/01 02:00:28;;;;;;;;;;;8.50;99.90;;;;;;5113971;28;19930;-72
2023/05/01 02:02:54;;;;;;;;;;;8.40;99.90;;;;;;5094560;28;19959;-72
2023/05/01 02:05:20;;;;;;;;;;;8.80;99.90;;;;;;5095446;28;19970;-72
2023/05/01 02:07:47;;;;;;;;;;;8.40;99.90;;;;;;5095274;28;19967;-72
2023/05/01 02:10:13;;;;;;;;;;;8.50;99.90;;;;;;5094647;28;19923;-72
2023/05/01 02:12:44;;;;;;;;;;;8.50;99.90;;;;;;5095245;28;20022;-72
2023/05/01 02:15:10;;;;;;;;;;;8.40;99.90;;;;;;5095055;28;19978;-72
2023/05/01 02:17:36;;;;;;;;;;;8.30;99.90;;;;;;5112160;28;20352;-72
2023/05/01 02:20:04;;;;;;;;;;;8.30;99.90;;;;;;5113170;28;19923;-72
2023/05/01 02:22:30;;;;;;;;;;;8.30;99.90;;;;;;5095335;28;19930;-72
2023/05/01 02:24:56;;;;;;;;;;;8.30;99.90;;;;;;5112594;28;19924;-72
2023/05/01 02:27:23;;;;;;;;;;;8.30;99.90;;;;;;5094967;28;19923;-72
2023/05/01 02:29:50;;;;;;;;;;;8.40;99.90;;;;;;5095441;28;19986;-72
2023/05/01 02:32:16;;;;;;;;;;;8.40;99.90;;;;;;5094621;28;20010;-72
2023/05/01 02:34:42;;;;;;;;;;;8.30;99.90;;;;;;5113543;28;19982;-72
2023/05/01 02:37:09;;;;;;;;;;;8.30;99.90;;;;;;5112374;28;19928;-72
2023/05/01 02:39:35;;;;;;;;;;;8.30;99.90;;;;;;5095447;28;19974;-72
2023/05/01 02:42:02;;;;;;;;;;;8.30;99.90;;;;;;5094432;28;19930;-72
2023/05/01 02:44:29;;;;;;;;;;;8.40;99.90;;;;;;5094962;28;19928;-72
2023/05/01 02:46:56;;;;;;;;;;;8.60;99.90;;;;;;5113135;28;19930;-72
2023/05/01 02:49:22;;;;;;;;;;;8.50;99.90;;;;;;5095161;28;19931;-72
2023/05/01 02:51:47;;;;;;;;;;;8.30;99.90;;;;;;5112538;28;19934;-72
2023/05/01 02:54:14;;;;;;;;;;;8.30;99.90;;;;;;5112521;28;20006;-72
2023/05/01 02:56:40;;;;;;;;;;;8.20;99.90;;;;;;5113377;28;19924;-72
2023/05/01 02:59:05;;;;;;;;;;;8.10;99.90;;;;;;5093834;28;19924;-72
2023/05/01 03:01:31;;;;;;;;;;;8.20;99.90;;;;;;5113465;28;19923;-71
2023/05/01 03:03:57;;;;;;;;;;;8.10;99.90;;;;;;5112202;28;19931;-72
2023/05/01 03:06:22;;;;;;;;;;;8.20;99.90;;;;;;5094057;28;19924;-71
2023/05/01 03:08:48;;;;;;;;;;;8.10;99.90;;;;;;5113028;28;19976;-71
2023/05/01 03:11:14;;;;;;;;;;;8.10;99.90;;;;;;5094573;28;19924;-72
2023/05/01 03:13:39;;;;;;;;;;;8.00;99.90;;;;;;5094092;28;19930;-72
2023/05/01 03:16:05;;;;;;;;;;;8.00;99.90;;;;;;5094393;28;19923;-73
2023/05/01 03:18:31;;;;;;;;;;;8.00;99.90;;;;;;5094875;28;19977;-72
2023/05/01 03:20:56;;;;;;;;;;;8.20;99.90;;;;;;5094010;28;19924;-72
2023/05/01 03:23:22;;;;;;;;;;;8.40;99.90;;;;;;5113017;28;20424;-72
2023/05/01 03:25:48;;;;;;;;;;;8.00;99.90;;;;;;5112757;28;19938;-72
2023/05/01 03:28:14;;;;;;;;;;;8.00;99.90;;;;;;5094941;28;20007;-72
2023/05/01 03:30:39;;;;;;;;;;;8.00;99.90;;;;;;5116840;28;19923;-72
2023/05/01 03:33:05;;;;;;;;;;;8.90;99.90;;;;;;5098303;28;19931;-72
2023/05/01 03:35:30;;;;;;;;;;;8.00;99.90;;;;;;5115953;28;19930;-72
2023/05/01 03:37:56;;;;;;;;;;;8.60;99.90;;;;;;5098018;28;19924;-72
2023/05/01 03:40:22;;;;;;;;;;;7.90;99.90;;;;;;5116633;28;19934;-72
2023/05/01 03:42:47;;;;;;;;;;;7.80;99.90;;;;;;5115954;28;19928;-72
2023/05/01 03:45:13;;;;;;;;;;;7.90;99.90;;;;;;5116079;28;19931;-71
2023/05/01 03:47:38;;;;;;;;;;;7.90;99.90;;;;;;5097519;28;19923;-72
2023/05/01 03:50:04;;;;;;;;;;;7.80;99.90;;;;;;5115859;28;19927;-72
2023/05/01 03:52:30;;;;;;;;;;;7.80;99.90;;;;;;5097985;28;20318;-72
2023/05/01 03:54:56;;;;;;;;;;;8.10;99.90;;;;;;5114860;28;19930;-72
2023/05/01 03:57:22;;;;;;;;;;;7.70;99.90;;;;;;5097904;28;19930;-72
2023/05/01 03:59:48;;;;;;;;;;;7.80;99.90;;;;;;5115799;28;19935;-71
2023/05/01 04:02:13;;;;;;;;;;;7.60;99.90;;;;;;5096414;28;20276;-72
2023/05/01 04:04:39;;;;;;;;;;;7.70;99.90;;;;;;5115757;28;19924;-73
2023/05/01 04:07:04;;;;;;;;;;;7.70;99.90;;;;;;5096780;28;19928;-72
2023/05/01 04:09:30;;;;;;;;;;;7.60;99.90;;;;;;5113894;28;20425;-72
2023/05/01 04:11:58;;;;;;;;;;;7.60;99.90;;;;;;5095878;28;19928;-73
2023/05/01 04:14:24;;;;;;;;;;;7.50;99.90;;;;;;5095648;28;19924;-72
2023/05/01 04:16:50;;;;;;;;;;;7.80;99.90;;;;;;5114331;28;19937;-72
2023/05/01 04:19:16;;;;;;;;;;;7.50;99.90;;;;;;5115421;28;20321;-72
2023/05/01 04:21:41;;;;;;;;;;;7.50;99.90;;;;;;5097739;28;19928;-72
2023/05/01 04:24:07;;;;;;;;;;;7.80;99.90;;;;;;5096304;28;19931;-71
2023/05/01 04:26:32;;;;;;;;;;;7.50;99.90;;;;;;5097680;28;20385;-72
2023/05/01 04:28:59;;;;;;;;;;;7.50;99.90;;;;;;5115666;28;20434;-72
2023/05/01 04:31:25;;;;;;;;;;;7.50;99.90;;;;;;5096181;28;19946;-72
2023/05/01 04:33:50;;;;;;;;;;;7.50;99.90;;;;;;5096682;28;20362;-72
2023/05/01 04:36:16;;;;;;;;;;;7.50;99.90;;;;;;5097392;28;19921;-72
2023/05/01 04:38:41;;;;;;;;;;;7.50;99.90;;;;;;5096596;28;19956;-72
2023/05/01 04:41:07;;;;;;;;;;;7.50;99.90;;;;;;5096110;28;19924;-72
2023/05/01 04:43:33;;;;;;;;;;;7.50;99.90;;;;;;5097636;28;20343;-72
2023/05/01 04:45:58;;;;;;;;;;;7.50;99.90;;;;;;5114416;28;19985;-72
2023/05/01 04:48:24;;;;;;;;;;;8.20;99.90;;;;;;5115186;28;19963;-73
2023/05/01 04:50:49;;;;;;;;;;;7.50;99.90;;;;;;5114500;28;20022;-72
2023/05/01 04:53:15;;;;;;;;;;;7.50;99.90;;;;;;5115018;28;20361;-73
2023/05/01 04:55:40;;;;;;;;;;;8.20;99.90;;;;;;5097094;28;19973;-72
2023/05/01 04:58:06;;;;;;;;;;;7.60;99.90;;;;;;5113510;28;19930;-72
2023/05/01 05:00:31;;;;;;;;;;;7.80;99.90;;;;;;5096657;28;19970;-72
2023/05/01 05:02:57;;;;;;;;;;;7.70;99.90;;;;;;5114905;28;19950;-72
2023/05/01 05:05:22;;;;;;;;;;;7.70;99.90;;;;;;5096034;28;19924;-72
2023/05/01 05:07:48;;;;;;;;;;;7.80;99.90;;;;;;5115121;28;19928;-72
2023/05/01 05:10:14;;;;;;;;;;;7.80;99.90;;;;;;5114115;28;19947;-72
2023/05/01 05:12:39;;;;;;;;;;;7.90;99.90;;;;;;5114130;28;19931;-72
2023/05/01 05:15:05;;;;;;;;;;;7.90;99.90;;;;;;5114582;28;20448;-72
2023/05/01 05:17:30;;;;;;;;;;;8.00;99.90;;;;;;5096172;28;20401;-72
2023/05/01 05:19:56;;;;;;;;;;;8.00;99.90;;;;;;5094956;28;20305;-73
2023/05/01 05:22:22;;;;;;;;;;;8.10;99.90;;;;;;5095356;28;19927;-73
2023/05/01 05:24:52;;;;;;;;;;;8.10;99.90;;;;;;5113935;28;19975;-72
2023/05/01 05:27:18;;;;;;;;;;;8.40;99.90;;;;;;5113215;28;20388;-73
2023/05/01 05:29:43;;;;;;;;;;;8.30;99.90;;;;;;5095905;28;19934;-73
2023/05/01 05:32:10;;;;;;;;;;;8.30;99.90;;;;;;5114006;28;19924;-73
2023/05/01 05:34:35;;;;;;;;;;;8.40;99.90;;;;;;5094915;28;19923;-73
2023/05/01 05:37:01;;;;;;;;;;;8.50;99.90;;;;;;5095426;28;20699;-73
2023/05/01 05:39:26;;;;;;;;;;;8.40;99.90;;;;;;5114341;28;19923;-73
2023/05/01 05:41:52;;;;;;;;;;;8.60;99.90;;;;;;5113001;28;20010;-73
2023/05/01 05:44:18;;;;;;;;;;;9.10;99.90;;;;;;5114149;28;20351;-73
2023/05/01 05:46:44;;;;;;;;;;;9.40;99.90;;;;;;5113268;28;19924;-73
2023/05/01 05:49:09;;;;;;;;;;;8.90;99.90;;;;;;5094486;28;19963;-74
2023/05/01 05:51:35;;;;;;;;;;;9.00;99.90;;;;;;5113614;28;19996;-72
2023/05/01 05:54:00;;;;;;;;;;;9.00;99.90;;;;;;5113330;28;20375;-72
2023/05/01 05:56:26;;;;;;;;;;;9.10;99.90;;;;;;5113465;28;20362;-73
2023/05/01 05:58:51;;;;;;;;;;;10.10;99.90;;;;;;5095386;28;20276;-73
2023/05/01 06:01:17;;;;;;;;;;;9.30;99.90;;;;;;5095091;28;20038;-72
2023/05/01 06:03:42;;;;;;;;;;;9.40;99.90;;;;;;5113490;28;19978;-72
2023/05/01 06:06:08;;;;;;;;;;;9.50;99.90;;;;;;5113194;28;20288;-72
2023/05/01 06:08:36;;;;;;;;;;;9.60;99.90;;;;;;5094854;28;19924;-72
2023/05/01 06:11:01;;;;;;;;;;;9.70;99.90;;;;;;5094970;28;19963;-73
2023/05/01 06:13:27;;;;;;;;;;;9.80;99.90;;;;;;5095368;28;19969;-73
2023/05/01 06:15:53;;;;;;;;;;;10.00;99.90;;;;;;5112782;28;19924;-72
2023/05/01 06:18:18;;;;;;;;;;;10.40;99.90;;;;;;5095525;28;20007;-72
2023/05/01 06:20:44;;;;;;;;;;;10.20;99.90;;;;;;5113092;28;20463;-72
2023/05/01 06:23:12;;;;;;;;;;;10.90;99.90;;;;;;5112403;28;19924;-73
2023/05/01 06:25:38;;;;;;;;;;;10.30;99.90;;;;;;5095452;28;19928;-72
2023/05/01 06:28:03;;;;;;;;;;;10.50;99.90;;;;;;5094067;28;19931;-72
2023/05/01 06:30:29;;;;;;;;;;;10.60;99.90;;;;;;5094229;28;19938;-73
2023/05/01 06:32:55;;;;;;;;;;;10.70;99.90;;;;;;5095192;28;20006;-73
2023/05/01 06:35:20;;;;;;;;;;;10.80;99.90;;;;;;5095108;28;20054;-71
2023/05/01 06:37:46;;;;;;;;;;;10.90;99.90;;;;;;5094390;28;20014;-71
2023/05/01 06:40:11;;;;;;;;;;;11.10;99.90;;;;;;5112893;28;19924;-72
2023/05/01 06:42:38;;;;;;;;;;;11.10;99.90;;;;;;5094903;28;19924;-72
2023/05/01 06:45:04;;;;;;;;;;;11.30;99.90;;;;;;5090455;28;20022;-72
2023/05/01 06:47:29;;;;;;;;;;;11.50;99.90;;;;;;5111227;28;19932;-72
2023/05/01 06:49:55;;;;;;;;;;;11.60;99.90;;;;;;5112227;28;19935;-72
2023/05/01 06:52:21;;;;;;;;;;;11.70;99.90;;;;;;5111931;28;19947;-72
2023/05/01 06:54:46;;;;;;;;;;;11.90;99.90;;;;;;5112720;28;19924;-72
2023/05/01 06:57:12;;;;;;;;;;;12.00;99.90;;;;;;5093845;28;19924;-72
2023/05/01 06:59:37;;;;;;;;;;;12.10;99.90;;;;;;5111634;28;19981;-72
2023/05/01 07:02:03;;;;;;;;;;;12.20;99.90;;;;;;5111717;28;19927;-72
2023/05/01 07:04:30;;;;;;;;;;;12.30;99.90;;;;;;5097003;28;19966;-72
2023/05/01 07:06:55;;;;;;;;;;;12.50;99.90;;;;;;5097948;28;19924;-72
2023/05/01 07:09:21;;;;;;;;;;;12.60;99.90;;;;;;5116837;28;20260;-72
2023/05/01 07:11:46;;;;;;;;;;;12.70;99.90;;;;;;5115489;28;19924;-72
2023/05/01 07:14:12;;;;;;;;;;;12.90;99.90;;;;;;5097601;28;20298;-72
2023/05/01 07:16:37;;;;;;;;;;;13.00;99.90;;;;;;5098142;28;19927;-72
2023/05/01 07:19:03;;;;;;;;;;;13.00;99.90;;;;;;5097087;28;19928;-72
2023/05/01 07:21:30;;;;;;;;;;;13.10;99.90;;;;;;5097531;28;19950;-72
2023/05/01 07:23:55;;;;;;;;;;;13.30;99.90;;;;;;5115983;28;19923;-72
2023/05/01 07:26:21;;;;;;;;;;;13.40;99.90;;;;;;5097189;28;20303;-72
2023/05/01 07:28:47;;;;;;;;;;;13.50;99.90;;;;;;5097897;28;19924;-72
2023/05/01 07:31:12;;;;;;;;;;;13.80;99.90;;;;;;5114907;28;19923;-71
2023/05/01 07:33:38;;;;;;;;;;;14.20;99.90;;;;;;5096525;28;20306;-72
2023/05/01 07:36:03;;;;;;;;;;;14.80;99.90;;;;;;5097362;28;19989;-72
2023/05/01 07:38:29;;;;;;;;;;;15.40;99.90;;;;;;5115867;28;19976;-72
2023/05/01 07:40:55;;;;;;;;;;;16.00;99.90;;;;;;5115115;28;19924;-73
2023/05/01 07:43:21;;;;;;;;;;;16.50;99.90;;;;;;5097189;28;19920;-72
2023/05/01 07:45:55;;;;;;;;;;;16.90;99.90;;;;;;5097318;28;20315;-74
2023/05/01 07:48:20;;;;;;;;;;;17.70;99.90;;;;;;5115303;28;19930;-71
2023/05/01 07:50:46;;;;;;;;;;;17.90;99.90;;;;;;5097213;28;19923;-72
2023/05/01 07:53:12;;;;;;;;;;;18.20;99.40;;;;;;5096915;28;20061;-72
2023/05/01 07:55:39;;;;;;;;;;;18.50;98.30;;;;;;5096039;28;20404;-72
2023/05/01 07:58:05;;;;;;;;;;;18.80;98.50;;;;;;5096824;28;19924;-72
2023/05/01 08:00:30;;;;;;;;;;;19.20;98.00;;;;;;5097240;28;19924;-72
2023/05/01 08:02:56;;;;;;;;;;;19.70;97.80;;;;;;5114715;28;19927;-71
2023/05/01 08:05:21;;;;;;;;;;;20.00;96.80;;;;;;5097356;28;20408;-72
2023/05/01 08:07:47;;;;;;;;;;;20.50;94.50;;;;;;5096598;28;20022;-71
2023/05/01 08:10:13;;;;;;;;;;;20.50;94.10;;;;;;5111596;28;19939;-71
2023/05/01 08:12:45;;;;;;;;;;;20.80;92.70;;;;;;5085695;28;19938;-71
2023/05/01 08:15:10;;;;;;;;;;;21.20;92.00;;;;;;5092461;28;19924;-71
2023/05/01 08:17:36;;;;;;;;;;;21.40;91.80;;;;;;5077430;28;20302;-71
2023/05/01 08:20:02;;;;;;;;;;;21.40;90.80;;;;;;5113319;28;19923;-71
2023/05/01 08:22:28;;;;;;;;;;;21.10;91.70;;;;;;5113805;28;19931;-72
2023/05/01 08:24:54;;;;;;;;;;;20.70;90.20;;;;;;5096835;28;19924;-72
2023/05/01 08:27:19;;;;;;;;;;;20.60;90.40;;;;;;5114663;28;20006;-76
2023/05/01 08:29:45;;;;;;;;;;;20.80;87.70;;;;;;5096190;28;20020;-73
2023/05/01 08:32:10;;;;;;;;;;;21.10;90.40;;;;;;5115586;28;19928;-77
2023/05/01 08:34:36;;;;;;;;;;;21.50;89.10;;;;;;5096780;28;19927;-73
2023/05/01 08:37:01;;;;;;;;;;;22.10;89.60;;;;;;5096524;28;19930;-75
2023/05/01 08:39:27;;;;;;;;;;;22.40;90.00;;;;;;5097094;28;19931;-75
2023/05/01 08:41:52;;;;;;;;;;;22.80;84.40;;;;;;5115196;28;19924;-76
2023/05/01 08:44:19;;;;;;;;;;;23.50;83.70;;;;;;5113942;28;19927;-74
2023/05/01 08:46:52;;;;;;;;;;;24.00;83.60;;;;;;5115600;28;19924;-74
2023/05/01 08:49:18;;;;;;;;;;;23.90;80.90;;;;;;5097112;28;20011;-74
2023/05/01 08:51:45;;;;;;;;;;;24.10;81.70;;;;;;5114369;28;20386;-73
2023/05/01 08:54:12;;;;;;;;;;;23.90;81.20;;;;;;5114910;28;19927;-73
2023/05/01 08:56:38;;;;;;;;;;;23.60;83.20;;;;;;5114718;28;19923;-72
2023/05/01 08:59:04;;;;;;;;;;;23.50;83.00;;;;;;5095088;28;19935;-73
2023/05/01 09:01:31;;;;;;;;;;;23.40;80.50;;;;;;5114887;28;19947;-74
2023/05/01 09:03:57;;;;;;;;;;;23.10;82.30;;;;;;5113508;28;20439;-71
2023/05/01 09:06:25;;;;;;;;;;;23.70;82.90;;;;;;5096314;28;19928;-72
2023/05/01 09:08:51;;;;;;;;;;;23.80;84.30;;;;;;5096197;28;19924;-72
2023/05/01 09:11:17;;;;;;;;;;;23.80;83.60;;;;;;5095678;28;19930;-72
2023/05/01 09:13:43;;;;;;;;;;;23.70;84.10;;;;;;5114212;28;19924;-71
2023/05/01 09:16:08;;;;;;;;;;;23.70;83.90;;;;;;5096447;28;19930;-75
2023/05/01 09:18:34;;;;;;;;;;;23.60;83.90;;;;;;5094869;28;20391;-73
2023/05/01 09:21:00;;;;;;;;;;;23.60;84.30;;;;;;5093716;28;19931;-75
2023/05/01 09:23:26;;;;;;;;;;;23.80;82.20;;;;;;5094229;28;20367;-74
2023/05/01 09:25:52;;;;;;;;;;;23.40;80.60;;;;;;5093711;28;19924;-73
2023/05/01 09:28:18;;;;;;;;;;;23.30;79.20;;;;;;5114133;28;19934;-76
2023/05/01 09:30:43;;;;;;;;;;;22.80;82.40;;;;;;5096113;28;20011;-73
2023/05/01 09:33:13;;;;;;;;;;;22.40;84.90;;;;;;5109138;28;19931;-74
2023/05/01 09:35:51;;;;;;;;;;;22.10;85.60;;;;;;5094634;28;20095;-72
2023/05/01 09:38:17;;;;;;;;;;;22.00;85.90;;;;;;5095032;28;19928;-74
2023/05/01 09:40:43;;;;;;;;;;;22.30;84.50;;;;;;5112601;28;20486;-71
2023/05/01 09:43:08;;;;;;;;;;;22.80;86.10;;;;;;5113244;28;20030;-73
2023/05/01 09:45:35;;;;;;;;;;;23.00;85.20;;;;;;5095323;28;20268;-74
2023/05/01 09:48:10;;;;;;;;;;;23.50;87.00;;;;;;5094289;28;19924;-73
2023/05/01 09:50:35;;;;;;;;;;;24.10;84.40;;;;;;5094811;28;20399;-72
2023/05/01 09:53:03;;;;;;;;;;;24.50;80.30;;;;;;5094419;28;20023;-72
2023/05/01 09:55:29;;;;;;;;;;;24.90;83.60;;;;;;5093993;28;19930;-71
2023/05/01 09:57:54;;;;;;;;;;;25.20;80.50;;;;;;5094679;28;20415;-71
2023/05/01 10:00:20;;;;;;;;;;;25.30;83.70;;;;;;5112155;28;20290;-73
2023/05/01 10:02:47;;;;;;;;;;;25.90;82.60;;;;;;5113207;28;20012;-71
2023/05/01 10:05:12;;;;;;;;;;;26.20;79.70;;;;;;5094851;28;20435;-72
2023/05/01 10:07:38;;;;;;;;;;;25.80;77.40;;;;;;5111991;28;19928;-73
2023/05/01 10:10:16;;;;;;;;;;;26.00;78.70;;;;;;5112857;28;20406;-72
2023/05/01 10:12:41;;;;;;;;;;;26.00;76.60;;;;;;5112704;28;20405;-70
2023/05/01 10:15:08;;;;;;;;;;;25.90;77.70;;;;;;5093726;28;19928;-71
2023/05/01 10:17:40;;;;;;;;;;;25.70;79.70;;;;;;5112813;28;19924;-71
2023/05/01 10:20:06;;;;;;;;;;;25.80;78.20;;;;;;5112470;28;20389;-75
2023/05/01 10:22:32;;;;;;;;;;;25.70;78.70;;;;;;5111925;28;20318;-72
2023/05/01 10:24:58;;;;;;;;;;;25.30;79.10;;;;;;5112581;28;19935;-71
2023/05/01 10:27:24;;;;;;;;;;;25.00;78.80;;;;;;5112380;28;19928;-72
2023/05/01 10:29:53;;;;;;;;;;;24.50;77.30;;;;;;5112373;28;19957;-71
2023/05/01 10:32:19;;;;;;;;;;;23.80;78.70;;;;;;5112711;28;19928;-72
2023/05/01 10:34:47;;;;;;;;;;;23.70;81.30;;;;;;5094861;28;19927;-73
2023/05/01 10:37:17;;;;;;;;;;;23.30;82.40;;;;;;5092396;28;19923;-72
2023/05/01 10:39:42;;;;;;;;;;;23.10;82.30;;;;;;5111679;28;20014;-74
2023/05/01 10:42:15;;;;;;;;;;;22.90;82.20;;;;;;5111808;28;20034;-75
2023/05/01 10:44:41;;;;;;;;;;;22.50;80.80;;;;;;5112413;28;19924;-76
2023/05/01 10:47:30;;;;;;;;;;;22.10;80.80;;;;;;5093393;28;19930;-73
2023/05/01 10:50:03;;;;;;;;;;;21.70;84.00;;;;;;5112083;28;19924;-73
2023/05/01 10:52:29;;;;;;;;;;;21.40;84.20;;;;;;5094045;28;20307;-74
2023/05/01 10:55:15;;;;;;;;;;;21.30;84.60;;;;;;5094213;28;19923;-78
2023/05/01 10:57:41;;;;;;;;;;;21.20;85.00;;;;;;5092583;28;19924;-79
2023/05/01 11:00:06;;;;;;;;;;;21.10;83.90;;;;;;5093403;28;19923;-84
2023/05/01 11:02:32;;;;;;;;;;;21.00;86.10;;;;;;5112680;28;20446;-77
2023/05/01 11:04:57;;;;;;;;;;;21.30;86.10;;;;;;5093691;28;19927;-77
2023/05/01 11:07:24;;;;;;;;;;;21.60;83.90;;;;;;5112491;28;19947;-76
2023/05/01 11:09:53;;;;;;;;;;;21.40;85.10;;;;;;5104735;28;20294;-74
2023/05/01 11:12:38;;;;;;;;;;;21.50;86.70;;;;;;5092373;28;20314;-77
2023/05/01 11:15:07;;;;;;;;;;;21.40;87.50;;;;;;5111239;28;19931;-78
2023/05/01 11:17:42;;;;;;;;;;;21.40;85.90;;;;;;5088957;28;19924;-75
2023/05/01 11:20:11;;;;;;;;;;;21.20;87.30;;;;;;5111889;28;19927;-74
2023/05/01 11:22:38;;;;;;;;;;;21.00;86.70;;;;;;5111331;28;19923;-74
2023/05/01 11:25:16;;;;;;;;;;;20.80;89.60;;;;;;5111098;28;19931;-71
2023/05/01 11:27:46;;;;;;;;;;;20.70;89.70;;;;;;5091481;28;19934;-72
2023/05/01 11:30:12;;;;;;;;;;;20.60;90.00;;;;;;5093494;28;19924;-73
2023/05/01 11:32:41;;;;;;;;;;;20.30;90.40;;;;;;5110743;28;19924;-78
2023/05/01 11:35:07;;;;;;;;;;;20.10;90.20;;;;;;5093302;28;19966;-74
2023/05/01 11:37:45;;;;;;;;;;;19.90;91.90;;;;;;5091681;28;20012;-74
2023/05/01 11:40:18;;;;;;;;;;;19.70;91.70;;;;;;5092619;28;19934;-73
2023/05/01 11:42:44;;;;;;;;;;;19.40;91.30;;;;;;5093532;28;20403;-74
2023/05/01 11:45:10;;;;;;;;;;;19.10;91.90;;;;;;5093015;28;20227;-74
2023/05/01 11:47:36;;;;;;;;;;;18.80;93.10;;;;;;5109805;28;19928;-71
2023/05/01 11:50:02;;;;;;;;;;;18.60;93.90;;;;;;5095462;28;20022;-74
2023/05/01 11:52:27;;;;;;;;;;;18.40;94.80;;;;;;5114851;28;20034;-75
2023/05/01 11:54:53;;;;;;;;;;;18.30;95.80;;;;;;5095911;28;19923;-73
2023/05/01 11:57:19;;;;;;;;;;;18.20;96.10;;;;;;5096094;28;19930;-70
2023/05/01 11:59:46;;;;;;;;;;;18.00;96.00;;;;;;5112910;28;19923;-72
2023/05/01 12:02:21;;;;;;;;;;;17.90;96.10;;;;;;5095919;28;20294;-72
2023/05/01 12:04:46;;;;;;;;;;;17.80;97.10;;;;;;5114759;28;19928;-71
2023/05/01 12:07:21;;;;;;;;;;;17.70;97.50;;;;;;5095328;28;19993;-72
2023/05/01 12:09:48;;;;;;;;;;;17.70;97.00;;;;;;5096911;28;19924;-72
2023/05/01 12:12:14;;;;;;;;;;;17.60;97.70;;;;;;5113787;28;19924;-72
2023/05/01 12:14:40;;;;;;;;;;;17.50;98.30;;;;;;5113739;28;19923;-76
2023/05/01 12:17:08;;;;;;;;;;;17.50;98.70;;;;;;5096396;28;19928;-73
2023/05/01 12:19:34;;;;;;;;;;;17.40;98.90;;;;;;5097004;28;19927;-73
2023/05/01 12:22:06;;;;;;;;;;;17.40;99.20;;;;;;5095452;28;19923;-74
2023/05/01 12:24:32;;;;;;;;;;;17.30;99.90;;;;;;5115326;28;19969;-74
2023/05/01 12:27:02;;;;;;;;;;;17.20;99.90;;;;;;5096030;28;19923;-78
2023/05/01 12:29:40;;;;;;;;;;;17.20;99.90;;;;;;5096506;28;19923;-73
2023/05/01 12:32:06;;;;;;;;;;;17.20;99.90;;;;;;5096798;28;19930;-74
2023/05/01 12:34:32;;;;;;;;;;;17.20;99.90;;;;;;5111624;28;19923;-72
2023/05/01 12:36:58;;;;;;;;;;;17.20;99.90;;;;;;5113711;28;20135;-72
2023/05/01 12:39:24;;;;;;;;;;;17.10;99.90;;;;;;5096265;28;19931;-72
2023/05/01 12:41:49;;;;;;;;;;;17.10;99.90;;;;;;5096534;28;19924;-72
2023/05/01 12:44:25;;;;;;;;;;;17.20;99.90;;;;;;5114035;28;19934;-72
2023/05/01 12:46:54;;;;;;;;;;;17.20;99.90;;;;;;5114885;28;19924;-72
2023/05/01 12:49:20;;;;;;;;;;;17.10;99.90;;;;;;5095679;28;19938;-72
2023/05/01 12:51:49;;;;;;;;;;;17.10;99.90;;;;;;5095574;28;20010;-72
2023/05/01 12:54:22;;;;;;;;;;;17.20;99.90;;;;;;5095708;28;19953;-72
2023/05/01 12:56:48;;;;;;;;;;;17.10;99.90;;;;;;5095240;28;19927;-74
2023/05/01 12:59:21;;;;;;;;;;;17.10;99.90;;;;;;5095546;28;19931;-74
2023/05/01 13:01:47;;;;;;;;;;;17.20;99.90;;;;;;5095238;28;19932;-73
2023/05/01 13:04:20;;;;;;;;;;;17.40;99.90;;;;;;5094851;28;20291;-73
2023/05/01 13:06:45;;;;;;;;;;;17.30;99.90;;;;;;5096165;28;19924;-73
2023/05/01 13:09:11;;;;;;;;;;;17.40;99.90;;;;;;5095983;28;20276;-73
2023/05/01 13:11:36;;;;;;;;;;;17.30;99.90;;;;;;5113695;28;19924;-72
2023/05/01 13:14:06;;;;;;;;;;;17.40;99.90;;;;;;5113614;28;19923;-73
2023/05/01 13:16:32;;;;;;;;;;;17.30;99.90;;;;;;5096141;28;19928;-71
2023/05/01 13:18:57;;;;;;;;;;;17.40;99.90;;;;;;5112925;28;19924;-72
2023/05/01 13:21:23;;;;;;;;;;;17.40;99.90;;;;;;5096327;28;19924;-73
2023/05/01 13:23:53;;;;;;;;;;;17.40;99.90;;;;;;5114438;28;19925;-72
2023/05/01 13:26:24;;;;;;;;;;;17.30;99.90;;;;;;5095328;28;19967;-71
2023/05/01 13:28:49;;;;;;;;;;;17.20;99.90;;;;;;5114038;28;19924;-71
2023/05/01 13:31:15;;;;;;;;;;;17.20;99.90;;;;;;5112960;28;19924;-71
2023/05/01 13:33:42;;;;;;;;;;;17.20;99.90;;;;;;5095624;28;19947;-71
2023/05/01 13:36:08;;;;;;;;;;;17.10;99.90;;;;;;5095164;28;19963;-71
2023/05/01 13:38:41;;;;;;;;;;;17.10;99.90;;;;;;5094715;28;19924;-74
2023/05/01 13:41:06;;;;;;;;;;;17.00;99.90;;;;;;5113792;28;19924;-72
2023/05/01 13:43:33;;;;;;;;;;;16.90;99.90;;;;;;5113195;28;19930;-74
2023/05/01 13:45:59;;;;;;;;;;;16.90;99.90;;;;;;5093471;28;19928;-73
2023/05/01 13:48:24;;;;;;;;;;;16.70;99.90;;;;;;5112981;28;20287;-77
2023/05/01 13:50:50;;;;;;;;;;;16.70;99.90;;;;;;5113104;28;20383;-72
2023/05/01 13:53:15;;;;;;;;;;;16.60;99.90;;;;;;5093862;28;19924;-73
2023/05/01 13:55:41;;;;;;;;;;;16.40;99.90;;;;;;5113526;28;20305;-73
2023/05/01 13:58:07;;;;;;;;;;;16.40;99.90;;;;;;5094254;28;19930;-75
2023/05/01 14:00:32;;;;;;;;;;;16.40;99.90;;;;;;5094506;28;19931;-75
2023/05/01 14:02:58;;;;;;;;;;;16.40;99.90;;;;;;5113570;28;19924;-74
2023/05/01 14:05:27;;;;;;;;;;;16.50;99.90;;;;;;5113619;28;20018;-73
2023/05/01 14:07:54;;;;;;;;;;;16.40;99.90;;;;;;5106826;28;19924;-74
2023/05/01 14:10:20;;;;;;;;;;;16.50;99.90;;;;;;5090185;28;19972;-75
2023/05/01 14:12:45;;;;;;;;;;;16.50;99.90;;;;;;5112917;28;20027;-75
2023/05/01 14:15:11;;;;;;;;;;;16.50;99.90;;;;;;5093362;28;19999;-76
2023/05/01 14:17:37;;;;;;;;;;;16.50;99.90;;;;;;5094478;28;19924;-74
2023/05/01 14:20:04;;;;;;;;;;;16.50;99.90;;;;;;5112138;28;19924;-75
2023/05/01 14:22:42;;;;;;;;;;;16.60;99.90;;;;;;5111915;28;19920;-74